createdAt,value
2023-04-12T00:00:59.103Z,9.14
2023-04-12T00:03:28.802Z,9.23
2023-04-12T00:10:42.474Z,8.78
2023-04-12T00:13:14.980Z,9.21
2023-04-12T00:15:44.171Z,9.31
2023-04-12T00:18:13.326Z,9.52
2023-04-12T00:20:46.373Z,8.74
2023-04-12T00:23:43.393Z,9.36
2023-04-12T00:26:12.980Z,9.80
2023-04-12T00:28:43.612Z,8.97
2023-04-12T00:31:14.230Z,10.08
2023-04-12T00:33:43.210Z,9.46
2023-04-12T00:36:12.299Z,9.11
2023-04-12T00:38:43.948Z,9.34
2023-04-12T00:41:37.180Z,10.89
2023-04-12T00:44:09.438Z,11.90
2023-04-12T00:46:39.121Z,12.18
2023-04-12T00:49:11.452Z,9.97
2023-04-12T00:51:41.594Z,10.55
2023-04-12T00:54:10.559Z,12.77
2023-04-12T00:56:43.046Z,12.97
2023-04-12T00:59:15.403Z,11.08
2023-04-12T01:01:46.204Z,12.25
2023-04-12T01:04:15.207Z,10.99
2023-04-12T01:06:55.145Z,12.01
2023-04-12T01:10:18.096Z,12.41
2023-04-12T01:12:52.973Z,12.53
2023-04-12T01:15:25.313Z,11.84
2023-04-12T01:18:16.118Z,12.08
2023-04-12T01:22:22.009Z,12.42
2023-04-12T01:25:25.045Z,12.04
2023-04-12T01:28:05.537Z,10.27
2023-04-12T01:30:44.684Z,11.15
2023-04-12T01:33:32.528Z,10.37
2023-04-12T01:36:13.601Z,10.36
2023-04-12T01:38:43.530Z,10.41
2023-04-12T01:41:14.453Z,10.02
2023-04-12T01:43:48.348Z,9.96
2023-04-12T01:46:21.910Z,9.73
2023-04-12T01:48:52.703Z,10.09
2023-04-12T01:51:44.728Z,9.93
2023-04-12T01:54:18.694Z,10.02
2023-04-12T01:56:51.849Z,10.01
2023-04-12T01:59:22.849Z,9.91
2023-04-12T02:01:54.808Z,9.85
2023-04-12T02:04:27.016Z,9.71
2023-04-12T02:06:57.801Z,9.72
2023-04-12T02:09:26.856Z,9.48
2023-04-12T02:11:55.885Z,9.37
2023-04-12T02:14:24.930Z,8.90
2023-04-12T02:16:56.576Z,9.26
2023-04-12T02:19:25.961Z,9.23
2023-04-12T02:21:56.183Z,9.16
2023-04-12T02:24:25.286Z,9.07
2023-04-12T02:26:55.974Z,8.83
2023-04-12T02:29:25.214Z,7.57
2023-04-12T02:31:54.883Z,8.11
2023-04-12T02:34:34.972Z,8.32
2023-04-12T02:40:13.409Z,8.02
2023-04-12T02:42:43.778Z,8.21
2023-04-12T02:45:18.592Z,8.10
2023-04-12T02:47:50.935Z,8.07
2023-04-12T02:50:24.460Z,8.01
2023-04-12T02:53:01.137Z,7.94
2023-04-12T02:55:31.385Z,7.86
2023-04-12T02:58:03.565Z,7.75
2023-04-12T03:00:33.204Z,7.59
2023-04-12T03:03:04.675Z,7.51
2023-04-12T03:05:34.234Z,7.46
2023-04-12T03:08:03.399Z,7.46
2023-04-12T03:10:42.830Z,7.40
2023-04-12T03:13:12.168Z,7.29
2023-04-12T03:15:45.690Z,7.00
2023-04-12T03:18:15.554Z,6.96
2023-04-12T03:20:50.559Z,6.79
2023-04-12T03:23:21.052Z,6.89
2023-04-12T03:25:57.718Z,6.99
2023-04-12T03:28:32.639Z,6.99
2023-04-12T03:31:04.012Z,6.98
2023-04-12T03:34:01.742Z,6.93
2023-04-12T03:36:32.137Z,6.85
2023-04-12T03:39:09.621Z,6.81
2023-04-12T03:41:43.379Z,6.72
2023-04-12T03:44:12.504Z,6.67
2023-04-12T03:46:44.966Z,6.63
2023-04-12T03:49:14.586Z,6.64
2023-04-12T03:51:44.595Z,6.57
2023-04-12T03:54:16.139Z,6.49
2023-04-12T03:56:57.914Z,6.34
2023-04-12T03:59:37.438Z,6.22
2023-04-12T04:02:08.120Z,6.07
2023-04-12T04:04:43.889Z,6.06
2023-04-12T04:07:15.778Z,6.20
2023-04-12T04:09:47.176Z,6.06
2023-04-12T04:12:18.962Z,6.21
2023-04-12T04:14:51.218Z,6.05
2023-04-12T04:17:49.360Z,5.91
2023-04-12T04:20:21.793Z,5.75
2023-04-12T04:22:56.029Z,5.96
2023-04-12T04:25:34.536Z,5.94
2023-04-12T04:28:08.652Z,5.86
2023-04-12T04:30:42.896Z,6.00
2023-04-12T04:33:20.159Z,5.94
2023-04-12T04:35:49.634Z,5.93
2023-04-12T04:38:27.882Z,5.90
2023-04-12T04:41:05.565Z,5.94
2023-04-12T04:43:57.266Z,5.92
2023-04-12T04:46:31.464Z,5.86
2023-04-12T04:49:01.029Z,5.83
2023-04-12T04:51:30.734Z,5.73
2023-04-12T04:54:03.136Z,5.71
2023-04-12T04:56:33.581Z,5.66
2023-04-12T04:59:03.267Z,5.52
2023-04-12T05:01:36.982Z,5.58
2023-04-12T05:04:06.759Z,5.50
2023-04-12T05:06:38.238Z,5.51
2023-04-12T05:09:10.223Z,5.55
2023-04-12T05:11:45.570Z,5.59
2023-04-12T05:14:15.454Z,5.56
2023-04-12T05:16:44.749Z,5.43
2023-04-12T05:19:13.858Z,5.30
2023-04-12T05:21:42.802Z,5.35
2023-04-12T05:24:12.357Z,5.25
2023-04-12T05:26:43.430Z,5.23
2023-04-12T05:29:18.104Z,5.17
2023-04-12T05:31:47.821Z,5.14
2023-04-12T05:34:21.557Z,5.22
2023-04-12T05:36:55.762Z,5.09
2023-04-12T05:39:28.222Z,5.12
2023-04-12T05:41:57.453Z,5.33
2023-04-12T05:44:28.003Z,5.26
2023-04-12T05:46:57.213Z,5.12
2023-04-12T05:49:32.087Z,4.92
2023-04-12T05:52:04.926Z,4.70
2023-04-12T05:54:34.752Z,4.99
2023-04-12T05:57:04.631Z,4.73
2023-04-12T05:59:36.445Z,4.82
2023-04-12T06:02:06.695Z,4.66
2023-04-12T06:07:14.729Z,4.57
2023-04-12T06:09:45.421Z,4.66
2023-04-12T06:12:18.561Z,4.94
2023-04-12T06:14:48.598Z,4.87
2023-04-12T06:17:21.254Z,4.86
2023-04-12T06:19:50.465Z,4.84
2023-04-12T06:22:21.193Z,4.97
2023-04-12T06:24:50.161Z,4.67
2023-04-12T06:27:21.426Z,4.45
2023-04-12T06:29:56.656Z,4.88
2023-04-12T06:32:28.701Z,4.93
2023-04-12T06:34:58.142Z,4.90
2023-04-12T06:37:27.413Z,4.82
2023-04-12T06:39:56.464Z,4.79
2023-04-12T06:42:25.813Z,4.73
2023-04-12T06:44:56.969Z,4.63
2023-04-12T06:47:28.636Z,4.57
2023-04-12T06:49:58.976Z,4.65
2023-04-12T06:52:28.531Z,4.65
2023-04-12T06:54:58.242Z,4.55
2023-04-12T06:57:27.789Z,4.51
2023-04-12T06:59:56.977Z,4.48
2023-04-12T07:02:26.345Z,4.44
2023-04-12T07:04:55.776Z,4.50
2023-04-12T07:07:24.940Z,4.44
2023-04-12T07:09:54.022Z,4.35
2023-04-12T07:12:23.676Z,4.21
2023-04-12T07:14:54.945Z,3.98
2023-04-12T07:17:33.684Z,3.80
2023-04-12T07:29:55.432Z,4.27
2023-04-12T07:32:26.431Z,4.41
2023-04-12T07:34:55.591Z,4.36
2023-04-12T07:37:24.590Z,4.32
2023-04-12T07:39:56.603Z,4.15
2023-04-12T07:42:32.913Z,4.15
2023-04-12T07:45:04.989Z,3.99
2023-04-12T07:47:36.874Z,3.93
2023-04-12T07:50:07.115Z,3.99
2023-04-12T07:52:36.909Z,3.87
2023-04-12T07:55:06.340Z,3.78
2023-04-12T07:57:38.108Z,4.15
2023-04-12T08:00:12.750Z,4.08
2023-04-12T08:02:44.397Z,4.03
2023-04-12T08:05:27.441Z,3.80
2023-04-12T08:08:07.691Z,3.69
2023-04-12T08:10:39.947Z,4.09
2023-04-12T08:13:09.582Z,3.91
2023-04-12T08:15:41.831Z,3.94
2023-04-12T08:18:13.524Z,3.94
2023-04-12T08:20:44.800Z,3.99
2023-04-12T08:23:13.933Z,3.95
2023-04-12T08:25:46.202Z,3.94
2023-04-12T08:28:15.366Z,3.76
2023-04-12T08:30:47.876Z,3.65
2023-04-12T08:33:18.116Z,3.59
2023-04-12T08:35:49.339Z,3.71
2023-04-12T08:38:18.421Z,3.94
2023-04-12T08:40:50.153Z,3.79
2023-04-12T08:43:23.619Z,3.85
2023-04-12T08:45:52.829Z,3.56
2023-04-12T08:48:23.523Z,3.80
2023-04-12T08:50:53.767Z,3.63
2023-04-12T08:53:23.010Z,3.41
2023-04-12T08:55:57.146Z,3.41
2023-04-12T08:58:26.587Z,3.49
2023-04-12T09:00:59.877Z,3.56
2023-04-12T09:03:33.346Z,3.38
2023-04-12T09:06:04.975Z,3.28
2023-04-12T09:08:34.151Z,3.24
2023-04-12T09:11:03.333Z,3.54
2023-04-12T09:13:38.041Z,3.48
2023-04-12T09:16:07.465Z,3.70
2023-04-12T09:18:50.093Z,3.68
2023-04-12T09:21:25.063Z,3.54
2023-04-12T09:24:14.880Z,3.48
2023-04-12T09:26:44.067Z,3.73
2023-04-12T09:29:26.297Z,3.76
2023-04-12T09:32:05.607Z,3.87
2023-04-12T09:34:37.014Z,3.35
2023-04-12T09:37:17.149Z,3.15
2023-04-12T09:39:46.232Z,3.52
2023-04-12T09:42:32.537Z,3.33
2023-04-12T09:45:26.336Z,3.15
2023-04-12T09:47:58.493Z,3.17
2023-04-12T09:50:34.369Z,3.28
2023-04-12T09:53:05.454Z,3.45
2023-04-12T09:55:34.596Z,3.36
2023-04-12T09:58:05.743Z,3.27
2023-04-12T10:00:35.867Z,3.30
2023-04-12T10:03:06.203Z,3.42
2023-04-12T10:05:37.392Z,3.33
2023-04-12T10:08:07.106Z,3.33
2023-04-12T10:10:41.683Z,3.56
2023-04-12T10:13:14.619Z,3.20
2023-04-12T10:15:49.921Z,3.23
2023-04-12T10:18:20.093Z,3.24
2023-04-12T10:20:49.250Z,3.40
2023-04-12T10:23:20.185Z,3.58
2023-04-12T10:25:50.175Z,3.65
2023-04-12T10:28:22.396Z,3.33
2023-04-12T10:30:53.160Z,2.84
2023-04-12T10:33:28.413Z,3.08
2023-04-12T10:36:04.872Z,3.00
2023-04-12T10:38:47.790Z,3.00
2023-04-12T10:41:23.258Z,3.55
2023-04-12T10:44:27.595Z,3.14
2023-04-12T10:46:56.884Z,2.84
2023-04-12T10:49:36.609Z,3.12
2023-04-12T10:52:13.987Z,3.22
2023-04-12T10:54:43.678Z,3.20
2023-04-12T10:57:46.225Z,2.99
2023-04-12T11:00:16.742Z,2.93
2023-04-12T11:03:08.793Z,2.70
2023-04-12T11:06:20.186Z,2.76
2023-04-12T11:09:45.976Z,2.65
2023-04-12T11:12:22.463Z,3.02
2023-04-12T11:14:53.321Z,3.27
2023-04-12T11:17:27.231Z,3.25
2023-04-12T11:19:59.144Z,3.14
2023-04-12T11:22:30.421Z,3.08
2023-04-12T11:25:02.659Z,2.99
2023-04-12T11:27:35.468Z,3.01
2023-04-12T11:30:04.897Z,3.14
2023-04-12T11:32:42.218Z,3.21
2023-04-12T11:38:38.814Z,3.07
2023-04-12T11:41:12.398Z,2.91
2023-04-12T11:43:41.840Z,2.97
2023-04-12T11:46:11.467Z,3.01
2023-04-12T11:48:40.725Z,3.17
2023-04-12T11:51:32.548Z,2.88
2023-04-12T11:54:01.880Z,2.62
2023-04-12T11:56:32.732Z,2.95
2023-04-12T11:59:03.982Z,2.87
2023-04-12T12:01:34.814Z,3.06
2023-04-12T12:04:05.350Z,2.87
2023-04-12T12:06:35.537Z,2.49
2023-04-12T12:09:04.789Z,2.35
2023-04-12T12:11:36.960Z,2.63
2023-04-12T12:14:09.520Z,2.59
2023-04-12T12:16:44.117Z,2.66
2023-04-12T12:19:13.258Z,2.50
2023-04-12T12:21:42.218Z,2.29
2023-04-12T12:24:15.413Z,2.46
2023-04-12T12:26:45.335Z,2.48
2023-04-12T12:29:24.294Z,2.42
2023-04-12T12:31:54.218Z,2.41
2023-04-12T12:34:27.208Z,2.46
2023-04-12T12:36:57.565Z,2.50
2023-04-12T12:39:26.981Z,2.49
2023-04-12T12:42:00.145Z,2.57
2023-04-12T12:44:30.069Z,2.67
2023-04-12T12:47:10.041Z,2.90
2023-04-12T12:49:42.935Z,2.92
2023-04-12T12:52:12.105Z,2.91
2023-04-12T12:54:41.808Z,2.61
2023-04-12T12:57:14.162Z,2.56
2023-04-12T12:59:43.157Z,2.74
2023-04-12T13:02:12.420Z,2.63
2023-04-12T13:04:44.139Z,2.67
2023-04-12T13:07:16.360Z,2.64
2023-04-12T13:09:47.390Z,2.46
2023-04-12T13:12:19.208Z,2.53
2023-04-12T13:14:48.399Z,2.47
2023-04-12T13:17:20.739Z,2.46
2023-04-12T13:19:50.527Z,2.52
2023-04-12T13:22:19.696Z,2.30
2023-04-12T13:24:48.768Z,2.40
2023-04-12T13:27:18.292Z,2.35
2023-04-12T13:30:02.604Z,2.11
2023-04-12T13:32:41.709Z,1.95
2023-04-12T13:35:14.157Z,2.18
2023-04-12T13:37:43.333Z,2.38
2023-04-12T13:40:12.879Z,2.32
2023-04-12T13:42:42.588Z,2.47
2023-04-12T13:45:12.975Z,2.46
2023-04-12T13:47:42.196Z,2.46
2023-04-12T13:50:11.723Z,2.32
2023-04-12T13:52:40.816Z,2.40
2023-04-12T13:55:10.567Z,2.46
2023-04-12T13:57:39.553Z,2.38
2023-04-12T14:03:38.987Z,2.46
2023-04-12T14:06:12.114Z,2.62
2023-04-12T14:08:41.255Z,2.46
2023-04-12T14:11:12.726Z,2.57
2023-04-12T14:13:41.869Z,2.39
2023-04-12T14:16:11.863Z,2.33
2023-04-12T14:18:40.936Z,2.62
2023-04-12T14:21:11.466Z,2.67
2023-04-12T14:23:42.176Z,2.71
2023-04-12T14:26:16.963Z,2.62
2023-04-12T14:28:46.057Z,2.53
2023-04-12T14:31:18.889Z,2.69
2023-04-12T14:33:54.445Z,2.40
2023-04-12T14:36:26.547Z,2.39
2023-04-12T14:38:56.814Z,2.35
2023-04-12T14:41:27.037Z,2.28
2023-04-12T14:44:09.982Z,2.49
2023-04-12T14:46:39.197Z,2.65
2023-04-12T14:49:11.897Z,2.39
2023-04-12T14:51:41.832Z,2.33
2023-04-12T14:54:10.993Z,2.28
2023-04-12T14:56:51.094Z,2.30
2023-04-12T14:59:26.942Z,2.62
2023-04-12T15:02:05.238Z,2.71
2023-04-12T15:04:34.663Z,2.54
2023-04-12T15:07:07.132Z,2.30
2023-04-12T15:09:39.349Z,2.37
2023-04-12T15:12:09.281Z,2.67
2023-04-12T15:14:39.058Z,3.07
2023-04-12T15:17:16.222Z,2.91
2023-04-12T15:19:45.240Z,2.82
2023-04-12T15:22:14.588Z,3.02
2023-04-12T15:24:43.538Z,2.84
2023-04-12T15:27:14.795Z,2.68
2023-04-12T15:29:46.398Z,2.65
2023-04-12T15:32:15.818Z,3.23
2023-04-12T15:34:44.866Z,3.23
2023-04-12T15:37:14.022Z,3.54
2023-04-12T15:39:43.192Z,3.55
2023-04-12T15:42:12.787Z,3.52
2023-04-12T15:44:44.920Z,3.76
2023-04-12T15:47:17.231Z,3.78
2023-04-12T15:49:46.330Z,3.83
2023-04-12T15:52:15.376Z,3.87
2023-04-12T15:54:44.365Z,3.84
2023-04-12T15:57:13.333Z,3.60
2023-04-12T15:59:45.493Z,3.83
2023-04-12T16:02:14.717Z,3.98
2023-04-12T16:04:44.813Z,4.17
2023-04-12T16:07:15.559Z,4.33
2023-04-12T16:09:44.623Z,4.50
2023-04-12T16:12:13.604Z,4.49
2023-04-12T16:14:43.887Z,4.62
2023-04-12T16:17:13.357Z,4.42
2023-04-12T16:19:42.679Z,4.40
2023-04-12T16:22:14.991Z,4.55
2023-04-12T16:24:44.622Z,4.46
2023-04-12T16:27:13.600Z,4.61
2023-04-12T16:29:42.743Z,4.69
2023-04-12T16:32:15.019Z,4.73
2023-04-12T16:34:48.665Z,4.69
2023-04-12T16:37:21.093Z,4.72
2023-04-12T16:39:51.803Z,4.63
2023-04-12T16:42:24.408Z,4.76
2023-04-12T16:44:54.440Z,4.91
2023-04-12T16:47:23.605Z,4.93
2023-04-12T16:49:56.120Z,5.16
2023-04-12T16:52:25.681Z,5.26
2023-04-12T16:54:54.834Z,5.22
2023-04-12T16:57:24.690Z,4.88
2023-04-12T16:59:56.700Z,5.11
2023-04-12T17:02:26.905Z,5.06
2023-04-12T17:04:56.368Z,4.95
2023-04-12T17:07:25.397Z,5.14
2023-04-12T17:09:55.777Z,5.24
2023-04-12T17:12:25.274Z,5.32
2023-04-12T17:14:54.409Z,5.47
2023-04-12T17:17:23.773Z,5.65
2023-04-12T17:19:53.066Z,5.80
2023-04-12T17:22:22.150Z,5.74
2023-04-12T17:24:51.697Z,5.86
2023-04-12T17:27:20.681Z,6.04
2023-04-12T17:29:51.054Z,6.10
2023-04-12T17:32:20.101Z,6.35
2023-04-12T17:34:55.600Z,6.39
2023-04-12T17:37:25.421Z,6.74
2023-04-12T17:39:54.898Z,6.80
2023-04-12T17:42:24.317Z,6.95
2023-04-12T17:44:53.647Z,7.06
2023-04-12T17:47:24.636Z,7.06
2023-04-12T17:49:53.953Z,7.07
2023-04-12T17:52:23.150Z,7.36
2023-04-12T17:54:52.658Z,7.45
2023-04-12T17:57:22.087Z,7.56
2023-04-12T17:59:51.327Z,7.63
2023-04-12T18:02:20.464Z,7.79
2023-04-12T18:04:55.291Z,7.92
2023-04-12T18:07:29.000Z,8.08
2023-04-12T18:09:58.180Z,8.19
2023-04-12T18:12:27.092Z,8.03
2023-04-12T18:14:56.171Z,8.00
2023-04-12T18:17:26.618Z,8.00
2023-04-12T18:20:00.634Z,7.93
2023-04-12T18:22:31.834Z,8.07
2023-04-12T18:25:01.711Z,8.06
2023-04-12T18:27:33.824Z,8.13
2023-04-12T18:30:04.160Z,8.46
2023-04-12T18:32:33.405Z,8.93
2023-04-12T18:35:03.287Z,8.98
2023-04-12T18:37:32.800Z,8.94
2023-04-12T18:40:02.008Z,8.71
2023-04-12T18:42:34.407Z,8.62
2023-04-12T18:45:03.572Z,9.05
2023-04-12T18:47:34.970Z,9.06
2023-04-12T18:50:06.782Z,9.39
2023-04-12T18:52:36.078Z,9.58
2023-04-12T18:55:05.429Z,8.74
2023-04-12T18:57:34.641Z,8.76
2023-04-12T19:00:08.121Z,9.35
2023-04-12T19:02:38.172Z,9.59
2023-04-12T19:05:07.755Z,9.73
2023-04-12T19:07:37.363Z,9.75
2023-04-12T19:10:18.159Z,9.72
2023-04-12T19:12:52.458Z,9.55
2023-04-12T19:15:27.986Z,9.52
2023-04-12T19:18:01.055Z,9.35
2023-04-12T19:20:30.487Z,9.29
2023-04-12T19:22:59.783Z,9.02
2023-04-12T19:25:32.602Z,9.85
2023-04-12T19:28:02.756Z,10.59
2023-04-12T19:30:33.664Z,10.20
2023-04-12T19:33:04.725Z,10.67
2023-04-12T19:35:36.576Z,10.87
2023-04-12T19:38:05.904Z,11.15
2023-04-12T19:40:40.132Z,11.21
2023-04-12T19:43:10.384Z,11.18
2023-04-12T19:45:39.414Z,11.11
2023-04-12T19:48:09.118Z,10.71
2023-04-12T19:50:38.432Z,10.76
2023-04-12T19:53:12.333Z,11.12
2023-04-12T19:55:45.574Z,11.73
2023-04-12T19:58:14.849Z,12.08
2023-04-12T20:00:54.189Z,12.43
2023-04-12T20:03:24.237Z,12.24
2023-04-12T20:05:53.944Z,11.95
2023-04-12T20:08:24.325Z,11.93
2023-04-12T20:10:56.394Z,12.37
2023-04-12T20:13:25.484Z,12.28
2023-04-12T20:16:01.406Z,11.94
2023-04-12T20:18:32.724Z,12.16
2023-04-12T20:21:01.927Z,12.02
2023-04-12T20:23:30.934Z,12.11
2023-04-12T20:26:00.987Z,11.97
2023-04-12T20:28:31.421Z,11.58
2023-04-12T20:31:01.126Z,11.61
2023-04-12T20:33:30.912Z,11.50
2023-04-12T20:36:00.509Z,11.97
2023-04-12T20:38:31.488Z,12.19
2023-04-12T20:41:00.639Z,11.97
2023-04-12T20:43:30.390Z,12.07
2023-04-12T20:45:59.642Z,12.53
2023-04-12T20:48:29.775Z,12.13
2023-04-12T20:51:02.809Z,13.03
2023-04-12T20:53:32.120Z,13.11
2023-04-12T20:56:05.290Z,13.24
2023-04-12T20:58:38.084Z,13.23
2023-04-12T21:01:15.074Z,12.75
2023-04-12T21:03:44.615Z,12.31
2023-04-12T21:06:13.997Z,12.98
2023-04-12T21:08:44.282Z,13.34
2023-04-12T21:11:13.361Z,13.60
2023-04-12T21:13:42.506Z,13.77
2023-04-12T21:16:16.754Z,13.69
2023-04-12T21:18:46.037Z,13.72
2023-04-12T21:21:16.076Z,13.50
2023-04-12T21:23:45.123Z,13.35
2023-04-12T21:26:15.753Z,13.51
2023-04-12T21:28:45.609Z,13.34
2023-04-12T21:31:14.753Z,13.18
2023-04-12T21:33:44.085Z,13.41
2023-04-12T21:36:15.934Z,13.61
2023-04-12T21:38:45.588Z,13.70
2023-04-12T21:41:18.253Z,13.97
2023-04-12T21:43:48.627Z,14.12
2023-04-12T21:46:18.466Z,14.26
2023-04-12T21:48:47.574Z,13.84
2023-04-12T21:51:16.646Z,13.91
2023-04-12T21:53:46.035Z,14.01
2023-04-12T21:56:15.419Z,13.96
2023-04-12T21:58:46.455Z,13.99
2023-04-12T22:01:16.793Z,14.04
2023-04-12T22:03:48.060Z,14.35
2023-04-12T22:06:23.217Z,14.71
2023-04-12T22:08:54.974Z,14.57
2023-04-12T22:11:25.527Z,14.63
2023-04-12T22:13:54.616Z,14.20
2023-04-12T22:16:26.817Z,13.83
2023-04-12T22:18:59.482Z,12.43
2023-04-12T22:21:32.282Z,12.78
2023-04-12T22:24:09.181Z,12.90
2023-04-12T22:26:38.422Z,13.15
2023-04-12T22:29:09.565Z,13.37
2023-04-12T22:31:39.331Z,13.27
2023-04-12T22:34:08.621Z,13.51
2023-04-12T22:36:42.837Z,14.14
2023-04-12T22:39:12.104Z,13.85
2023-04-12T22:41:42.661Z,14.57
2023-04-12T22:44:11.995Z,14.01
2023-04-12T22:46:44.815Z,14.52
2023-04-12T22:49:13.914Z,14.19
2023-04-12T22:51:43.507Z,14.81
2023-04-12T22:54:12.864Z,14.77
2023-04-12T22:56:47.893Z,15.34
2023-04-12T22:59:23.169Z,15.62
2023-04-12T23:01:52.613Z,15.30
2023-04-12T23:04:21.928Z,15.18
2023-04-12T23:06:58.141Z,14.12
2023-04-12T23:09:28.392Z,12.61
2023-04-12T23:11:57.476Z,12.77
2023-04-12T23:14:27.261Z,11.71
2023-04-12T23:16:58.003Z,12.04
2023-04-12T23:19:28.184Z,13.28
2023-04-12T23:21:57.277Z,13.27
2023-04-12T23:24:26.575Z,12.87
2023-04-12T23:26:58.961Z,12.97
2023-04-12T23:29:28.300Z,13.48
2023-04-12T23:31:57.297Z,13.33
2023-04-12T23:34:30.155Z,13.91
2023-04-12T23:37:05.565Z,14.37
2023-04-12T23:39:35.383Z,14.65
2023-04-12T23:42:06.661Z,14.89
2023-04-12T23:44:38.583Z,14.50
2023-04-12T23:47:10.070Z,14.71
2023-04-12T23:49:39.176Z,14.82
2023-04-12T23:52:08.235Z,14.97
2023-04-12T23:54:39.746Z,14.60
2023-04-12T23:57:08.982Z,14.60
2023-04-12T23:59:38.044Z,14.83
